Terminal Aerodrome Forecast
Issued by NWS

Home | Current Version | Previous Version | Text Only | Print | Product List | Glossary Off
Versions: 1 2 3 4 5 6 7 8 9 10 11 12 13 14 15 16 17 18 19

000
FTUS43 KMPX 090520
TAFAXN
TAF
KAXN 090520Z 0906/1006 31009KT P6SM SCT010 BKN025
      TEMPO 0908/0912 -SN BKN015
     FM091200 30006KT P6SM BKN015
     FM091700 30006KT P6SM FEW015 SCT100=

USA.gov is the U.S. government's official web portal to all federal, state and local government web resources and services.